createdAt,value
2023-02-19T00:01:48.920Z,103488.13
2023-02-19T00:04:17.894Z,103505.28
2023-02-19T00:06:46.718Z,103502.97
2023-02-19T00:09:15.607Z,103518.88
2023-02-19T00:11:43.319Z,103532.59
2023-02-19T00:14:14.528Z,103537.69
2023-02-19T00:16:41.911Z,103534.78
2023-02-19T00:19:13.205Z,103547.13
2023-02-19T00:21:40.734Z,103559.28
2023-02-19T00:24:10.432Z,103568.34
2023-02-19T00:26:39.240Z,103575.47
2023-02-19T00:29:06.449Z,103593.56
2023-02-19T00:31:35.168Z,103602.19
2023-02-19T00:34:04.805Z,103596.66
2023-02-19T00:36:34.785Z,103601.41
2023-02-19T00:39:02.372Z,103600.47
2023-02-19T00:41:29.683Z,103613.97
2023-02-19T00:43:59.016Z,103618.41
2023-02-19T00:46:28.852Z,103641.63
2023-02-19T00:48:57.476Z,103649.47
2023-02-19T00:51:27.364Z,103656.50
2023-02-19T00:53:56.495Z,103658.44
2023-02-19T00:56:23.785Z,103661.69
2023-02-19T00:58:51.024Z,103666.75
2023-02-19T01:01:19.349Z,103662.34
2023-02-19T01:03:47.118Z,103655.63
2023-02-19T01:06:16.644Z,103666.69
2023-02-19T01:08:44.384Z,103658.78
2023-02-19T01:11:13.724Z,103659.25
2023-02-19T01:13:41.827Z,103656.25
2023-02-19T01:16:12.609Z,103659.84
2023-02-19T01:18:40.064Z,103670.56
2023-02-19T01:21:09.628Z,103674.78
2023-02-19T01:23:37.261Z,103679.56
2023-02-19T01:26:05.789Z,103679.91
2023-02-19T01:28:34.601Z,103687.09
2023-02-19T01:31:02.732Z,103691.97
2023-02-19T01:33:30.449Z,103684.94
2023-02-19T01:35:58.019Z,103700.56
2023-02-19T01:38:26.063Z,103713.56
2023-02-19T01:40:57.132Z,103695.81
2023-02-19T01:43:24.516Z,103705.59
2023-02-19T01:45:53.626Z,103706.66
2023-02-19T01:48:25.726Z,103716.81
2023-02-19T01:50:56.465Z,103727.19
2023-02-19T01:53:27.612Z,103735.19
2023-02-19T01:55:58.569Z,103741.22
2023-02-19T01:58:29.576Z,103752.94
2023-02-19T02:00:58.658Z,103754.22
2023-02-19T02:03:26.166Z,103759.91
2023-02-19T02:05:57.445Z,103766.59
2023-02-19T02:08:26.241Z,103769.84
2023-02-19T02:10:54.918Z,103772.63
2023-02-19T02:13:22.278Z,103778.28
2023-02-19T02:15:59.127Z,103782.41
2023-02-19T02:18:42.073Z,103786.97
2023-02-19T02:21:32.296Z,103787.13
2023-02-19T02:24:11.917Z,103770.56
2023-02-19T02:26:56.168Z,103770.91
2023-02-19T02:29:57.718Z,103775.63
2023-02-19T02:32:31.686Z,103782.44
2023-02-19T02:35:04.112Z,103778.22
2023-02-19T02:37:36.944Z,103778.09
2023-02-19T02:40:08.279Z,103783.13
2023-02-19T02:42:39.422Z,103787.69
2023-02-19T02:45:29.931Z,103776.03
2023-02-19T02:47:58.808Z,103784.94
2023-02-19T02:50:32.790Z,103780.91
2023-02-19T02:53:05.206Z,103773.66
2023-02-19T02:55:37.457Z,103778.50
2023-02-19T02:58:05.793Z,103785.66
2023-02-19T03:00:35.074Z,103794.13
2023-02-19T03:03:05.315Z,103797.22
2023-02-19T03:05:33.185Z,103796.41
2023-02-19T03:08:07.803Z,103812.97
2023-02-19T03:10:39.086Z,103822.09
2023-02-19T03:13:11.367Z,103823.06
2023-02-19T03:15:44.946Z,103836.41
2023-02-19T03:18:16.345Z,103842.59
2023-02-19T03:20:47.084Z,103843.88
2023-02-19T03:23:17.973Z,103840.00
2023-02-19T03:25:47.702Z,103852.66
2023-02-19T03:28:21.429Z,103851.06
2023-02-19T03:30:53.122Z,103856.72
2023-02-19T03:33:26.444Z,103850.72
2023-02-19T03:35:59.426Z,103866.63
2023-02-19T03:38:34.463Z,103865.66
2023-02-19T03:41:09.404Z,103867.13
2023-02-19T03:43:41.859Z,103884.16
2023-02-19T03:46:13.686Z,103892.78
2023-02-19T03:48:51.561Z,103892.78
2023-02-19T03:51:31.209Z,103892.47
2023-02-19T03:54:09.485Z,103893.94
2023-02-19T03:56:43.758Z,103897.81
2023-02-19T03:59:17.595Z,103915.03
2023-02-19T04:01:48.542Z,103922.22
2023-02-19T04:04:22.026Z,103929.34
2023-02-19T04:06:54.234Z,103946.56
2023-02-19T04:09:23.814Z,103954.19
2023-02-19T04:11:59.911Z,103966.56
2023-02-19T04:14:32.007Z,103965.25
2023-02-19T04:17:02.495Z,103980.22
2023-02-19T04:19:35.813Z,103974.84
2023-02-19T04:22:06.137Z,103989.44
2023-02-19T04:24:37.717Z,103995.97
2023-02-19T04:27:06.346Z,104020.34
2023-02-19T04:29:33.719Z,104023.75
2023-02-19T04:32:01.441Z,104029.09
2023-02-19T04:34:28.734Z,104029.91
2023-02-19T04:36:57.548Z,104040.00
2023-02-19T04:39:24.847Z,104052.81
2023-02-19T04:41:52.075Z,104049.88
2023-02-19T04:44:19.390Z,104070.69
2023-02-19T04:46:46.742Z,104066.00
2023-02-19T04:49:13.968Z,104074.75
2023-02-19T04:51:41.462Z,104081.25
2023-02-19T04:54:10.148Z,104087.91
2023-02-19T04:56:37.489Z,104097.16
2023-02-19T04:59:04.748Z,104103.84
2023-02-19T05:01:32.094Z,104105.97
2023-02-19T05:03:59.333Z,104105.09
2023-02-19T05:06:26.664Z,104105.28
2023-02-19T05:08:53.937Z,104122.69
2023-02-19T05:11:22.633Z,104122.19
2023-02-19T05:13:49.871Z,104123.31
2023-02-19T05:16:17.674Z,104130.47
2023-02-19T05:18:46.257Z,104140.53
2023-02-19T05:21:14.471Z,104139.69
2023-02-19T05:23:42.153Z,104136.28
2023-02-19T05:26:12.326Z,104146.50
2023-02-19T05:28:41.177Z,104162.13
2023-02-19T05:31:09.910Z,104157.84
2023-02-19T05:33:37.749Z,104173.50
2023-02-19T05:36:08.159Z,104181.59
2023-02-19T05:38:35.859Z,104187.59
2023-02-19T05:41:10.514Z,104186.97
2023-02-19T05:43:38.213Z,104195.41
2023-02-19T05:46:07.773Z,104203.06
2023-02-19T05:48:35.253Z,104224.00
2023-02-19T05:51:03.410Z,104226.75
2023-02-19T05:53:31.422Z,104235.69
2023-02-19T05:55:59.094Z,104234.66
2023-02-19T05:58:27.035Z,104247.38
2023-02-19T06:00:55.135Z,104255.34
2023-02-19T06:03:23.933Z,104248.00
2023-02-19T06:05:51.334Z,104246.34
2023-02-19T06:08:18.522Z,104251.56
2023-02-19T06:10:45.776Z,104251.38
2023-02-19T06:13:13.031Z,104261.53
2023-02-19T06:15:40.174Z,104256.66
2023-02-19T06:18:07.483Z,104266.81
2023-02-19T06:20:36.090Z,104266.94
2023-02-19T06:23:03.317Z,104269.81
2023-02-19T06:25:30.698Z,104278.59
2023-02-19T06:27:58.077Z,104282.19
2023-02-19T06:30:25.460Z,104291.38
2023-02-19T06:32:53.452Z,104298.53
2023-02-19T06:35:20.972Z,104307.03
2023-02-19T06:37:49.915Z,104315.81
2023-02-19T06:40:17.210Z,104327.66
2023-02-19T06:42:44.557Z,104339.38
2023-02-19T06:45:11.830Z,104348.06
2023-02-19T06:47:39.084Z,104349.31
2023-02-19T06:50:06.750Z,104350.94
2023-02-19T06:52:34.140Z,104368.34
2023-02-19T06:55:02.762Z,104375.22
2023-02-19T06:57:30.132Z,104382.53
2023-02-19T06:59:57.371Z,104383.50
2023-02-19T07:02:24.629Z,104389.03
2023-02-19T07:04:51.952Z,104390.81
2023-02-19T07:07:19.229Z,104400.31
2023-02-19T07:09:46.460Z,104411.88
2023-02-19T07:12:15.228Z,104422.09
2023-02-19T07:14:42.447Z,104416.56
2023-02-19T07:17:09.768Z,104426.19
2023-02-19T07:19:37.226Z,104437.22
2023-02-19T07:22:04.527Z,104453.16
2023-02-19T07:24:31.857Z,104452.03
2023-02-19T07:26:59.192Z,104460.41
2023-02-19T07:29:28.080Z,104468.69
2023-02-19T07:31:55.390Z,104483.03
2023-02-19T07:34:22.637Z,104482.59
2023-02-19T07:36:49.973Z,104496.22
2023-02-19T07:39:17.389Z,104495.50
2023-02-19T07:41:45.163Z,104514.31
2023-02-19T07:44:27.352Z,104514.81
2023-02-19T07:46:54.714Z,104524.31
2023-02-19T07:49:22.018Z,104542.53
2023-02-19T07:51:49.288Z,104553.75
2023-02-19T07:54:16.604Z,104568.34
2023-02-19T07:56:44.142Z,104574.41
2023-02-19T07:59:11.383Z,104587.47
2023-02-19T08:01:40.068Z,104593.78
2023-02-19T08:04:07.414Z,104592.31
2023-02-19T08:06:34.778Z,104576.69
2023-02-19T08:09:02.058Z,104567.88
2023-02-19T08:11:29.435Z,104562.47
2023-02-19T08:13:56.665Z,104550.44
2023-02-19T08:16:40.866Z,104570.84
2023-02-19T08:19:11.679Z,104555.09
2023-02-19T08:21:39.019Z,104548.91
2023-02-19T08:24:06.563Z,104549.78
2023-02-19T08:26:34.243Z,104563.69
2023-02-19T08:29:01.513Z,104568.06
2023-02-19T08:31:28.846Z,104567.28
2023-02-19T08:33:56.272Z,104572.31
2023-02-19T08:36:24.951Z,104567.09
2023-02-19T08:38:52.319Z,104581.50
2023-02-19T08:41:19.631Z,104571.91
2023-02-19T08:43:46.939Z,104575.34
2023-02-19T08:46:14.434Z,104570.44
2023-02-19T08:48:41.832Z,104557.72
2023-02-19T08:51:11.879Z,104549.44
2023-02-19T08:53:41.173Z,104537.63
2023-02-19T08:56:10.005Z,104528.97
2023-02-19T08:58:37.851Z,104533.22
2023-02-19T09:01:08.511Z,104513.25
2023-02-19T09:03:36.046Z,104507.75
2023-02-19T09:06:03.526Z,104482.34
2023-02-19T09:08:30.741Z,104500.06
2023-02-19T09:11:00.534Z,104492.44
2023-02-19T09:13:28.157Z,104461.94
2023-02-19T09:15:55.625Z,104427.13
2023-02-19T09:18:23.300Z,104390.31
2023-02-19T09:20:50.628Z,104326.59
2023-02-19T09:23:17.849Z,104280.81
2023-02-19T09:25:44.977Z,104201.44
2023-02-19T09:28:13.713Z,104099.97
2023-02-19T09:30:41.030Z,103973.78
2023-02-19T09:33:08.288Z,103830.16
2023-02-19T09:35:39.011Z,103673.88
2023-02-19T09:38:06.549Z,103549.53
2023-02-19T09:40:36.149Z,103436.06
2023-02-19T09:43:06.743Z,103379.66
2023-02-19T09:45:36.808Z,103306.53
2023-02-19T09:48:05.525Z,103272.66
2023-02-19T09:50:37.308Z,103245.09
2023-02-19T09:53:10.989Z,103203.72
2023-02-19T09:55:41.346Z,103192.91
2023-02-19T09:58:21.966Z,103149.72
2023-02-19T10:00:51.990Z,103102.09
2023-02-19T10:03:23.373Z,103039.50
2023-02-19T10:05:51.204Z,102985.59
2023-02-19T10:08:20.962Z,102933.16
2023-02-19T10:10:48.328Z,102898.47
2023-02-19T10:13:20.731Z,102845.03
2023-02-19T10:15:51.634Z,102798.97
2023-02-19T10:18:21.876Z,102745.94
2023-02-19T10:20:50.529Z,102685.50
2023-02-19T10:23:18.516Z,102590.03
2023-02-19T10:25:49.516Z,102513.06
2023-02-19T10:28:20.171Z,102412.38
2023-02-19T10:30:52.942Z,102234.69
2023-02-19T10:33:21.142Z,102053.66
2023-02-19T10:35:56.123Z,101872.47
2023-02-19T10:38:26.786Z,101695.25
2023-02-19T10:41:01.001Z,101572.91
2023-02-19T10:43:30.892Z,101613.31
2023-02-19T10:46:01.844Z,101550.97
2023-02-19T10:48:32.217Z,101426.56
2023-02-19T10:51:02.594Z,101344.25
2023-02-19T10:53:40.842Z,101323.03
2023-02-19T10:56:12.490Z,101369.72
2023-02-19T10:58:40.290Z,101392.88
2023-02-19T11:01:20.345Z,101366.41
2023-02-19T11:03:49.110Z,101330.59
2023-02-19T11:06:18.518Z,101363.16
2023-02-19T11:08:52.399Z,101366.03
2023-02-19T11:11:26.597Z,101386.78
2023-02-19T11:13:55.651Z,101405.63
2023-02-19T11:16:37.242Z,101357.16
2023-02-19T11:19:04.707Z,101366.81
2023-02-19T11:21:32.031Z,101350.66
2023-02-19T11:24:00.843Z,101288.25
2023-02-19T11:26:32.370Z,101267.66
2023-02-19T11:29:01.430Z,101221.47
2023-02-19T11:31:32.148Z,101192.16
2023-02-19T11:34:01.309Z,101195.59
2023-02-19T11:36:31.726Z,101180.78
2023-02-19T11:39:05.900Z,101173.50
2023-02-19T11:42:13.947Z,101135.72
2023-02-19T11:44:56.384Z,101107.31
2023-02-19T11:47:48.000Z,101108.13
2023-02-19T11:50:24.812Z,101494.41
2023-02-19T11:53:04.334Z,101714.09
2023-02-19T11:55:46.427Z,101898.94
2023-02-19T11:58:38.312Z,101912.16
2023-02-19T12:01:17.082Z,101909.19
2023-02-19T12:04:20.717Z,101822.16
2023-02-19T12:06:58.045Z,101826.16
2023-02-19T12:09:41.965Z,101905.81
2023-02-19T12:12:32.855Z,101958.34
2023-02-19T12:15:32.659Z,101969.50
2023-02-19T12:18:33.945Z,102046.75
2023-02-19T12:21:18.552Z,102046.63
2023-02-19T12:24:15.649Z,102068.59
2023-02-19T12:26:50.141Z,102036.03
2023-02-19T12:29:33.102Z,102096.16
2023-02-19T12:32:27.710Z,102149.88
2023-02-19T12:35:18.177Z,102062.31
2023-02-19T12:37:52.703Z,102073.88
2023-02-19T12:40:32.242Z,102055.72
2023-02-19T12:43:10.726Z,102125.09
2023-02-19T12:45:42.916Z,102131.56
2023-02-19T12:48:18.640Z,102140.28
2023-02-19T12:50:50.884Z,102178.31
2023-02-19T12:53:32.064Z,102173.31
2023-02-19T12:56:03.853Z,102187.31
2023-02-19T12:58:39.011Z,102221.28
2023-02-19T13:01:11.046Z,102253.53
2023-02-19T13:03:44.577Z,102235.00
2023-02-19T13:06:23.657Z,102249.22
2023-02-19T13:09:06.462Z,102278.84
2023-02-19T13:11:40.175Z,102309.34
2023-02-19T13:14:16.691Z,102302.69
2023-02-19T13:16:48.369Z,102314.53
2023-02-19T13:19:15.789Z,102315.13
2023-02-19T13:21:47.561Z,102304.06
2023-02-19T13:24:23.419Z,102292.91
2023-02-19T13:27:23.210Z,102290.44
2023-02-19T13:30:04.032Z,102293.56
2023-02-19T13:33:05.218Z,102269.53
2023-02-19T13:35:57.205Z,102288.31
2023-02-19T13:38:25.068Z,102277.41
2023-02-19T13:40:58.834Z,102267.19
2023-02-19T13:43:29.293Z,102202.03
2023-02-19T13:45:59.121Z,102190.56
2023-02-19T13:48:28.980Z,102236.09
2023-02-19T13:51:34.466Z,102243.66
2023-02-19T13:54:12.994Z,102249.53
2023-02-19T13:56:41.680Z,102249.94
2023-02-19T13:59:34.476Z,102263.88
2023-02-19T14:02:25.507Z,102224.16
2023-02-19T14:04:55.633Z,102237.69
2023-02-19T14:08:01.034Z,102248.25
2023-02-19T14:10:59.038Z,102211.44
2023-02-19T14:13:59.426Z,102191.94
2023-02-19T14:16:50.429Z,102210.47
2023-02-19T14:19:49.327Z,102222.72
2023-02-19T14:23:01.425Z,102199.97
2023-02-19T14:25:40.752Z,102219.38
2023-02-19T14:28:18.744Z,102219.53
2023-02-19T14:30:51.245Z,102246.78
2023-02-19T14:33:22.082Z,102219.38
2023-02-19T14:35:54.126Z,102190.34
2023-02-19T14:38:25.648Z,102118.81
2023-02-19T14:40:55.333Z,102034.75
2023-02-19T14:43:25.839Z,101963.53
2023-02-19T14:45:57.921Z,101937.75
2023-02-19T14:48:28.449Z,101886.34
2023-02-19T14:51:01.807Z,101906.28
2023-02-19T14:53:31.937Z,101900.75
2023-02-19T14:56:00.046Z,101872.03
2023-02-19T14:58:31.455Z,101848.69
2023-02-19T15:01:00.264Z,101790.50
2023-02-19T15:03:31.626Z,101750.81
2023-02-19T15:06:03.321Z,101752.75
2023-02-19T15:08:39.661Z,101753.84
2023-02-19T15:11:11.414Z,101716.72
2023-02-19T15:13:39.904Z,101714.25
2023-02-19T15:16:15.970Z,101763.94
2023-02-19T15:18:45.137Z,101803.63
2023-02-19T15:21:22.655Z,101771.28
2023-02-19T15:23:50.743Z,101770.56
2023-02-19T15:26:22.059Z,101713.19
2023-02-19T15:28:57.896Z,101758.47
2023-02-19T15:31:26.680Z,101761.84
2023-02-19T15:33:54.120Z,101759.84
2023-02-19T15:36:26.522Z,101743.13
2023-02-19T15:38:56.021Z,101774.28
2023-02-19T15:41:26.347Z,101746.69
2023-02-19T15:43:58.064Z,101723.56
2023-02-19T15:46:27.167Z,101731.97
2023-02-19T15:49:01.239Z,101724.59
2023-02-19T15:51:34.675Z,101697.78
2023-02-19T15:54:09.895Z,101581.84
2023-02-19T15:56:41.760Z,101511.38
2023-02-19T15:59:18.818Z,101443.19
2023-02-19T16:01:48.230Z,101403.19
2023-02-19T16:04:18.241Z,101341.84
2023-02-19T16:06:58.310Z,101290.34
2023-02-19T16:09:30.306Z,101242.06
2023-02-19T16:11:58.891Z,101205.97
2023-02-19T16:14:30.687Z,101176.28
2023-02-19T16:17:05.856Z,101148.06
2023-02-19T16:19:44.808Z,101115.50
2023-02-19T16:22:15.704Z,101102.09
2023-02-19T16:24:45.319Z,101083.50
2023-02-19T16:27:13.638Z,101071.78
2023-02-19T16:29:41.219Z,101062.63
2023-02-19T16:32:17.142Z,101051.13
2023-02-19T16:34:45.925Z,101047.19
2023-02-19T16:37:36.078Z,101056.56
2023-02-19T16:40:54.948Z,101030.13
2023-02-19T16:43:28.587Z,101017.47
2023-02-19T16:45:56.079Z,101023.50
2023-02-19T16:48:25.424Z,101032.69
2023-02-19T16:50:52.873Z,101028.75
2023-02-19T16:53:22.247Z,101041.53
2023-02-19T16:55:49.583Z,101038.88
2023-02-19T16:58:16.923Z,101038.06
2023-02-19T17:00:44.210Z,101054.41
2023-02-19T17:03:13.986Z,101073.47
2023-02-19T17:05:42.978Z,101098.41
2023-02-19T17:08:25.381Z,101107.25
2023-02-19T17:10:54.662Z,101119.91
2023-02-19T17:13:23.001Z,101140.13
2023-02-19T17:15:50.319Z,101142.56
2023-02-19T17:18:17.770Z,101165.16
2023-02-19T17:20:50.200Z,101195.66
2023-02-19T17:23:17.509Z,101215.88
2023-02-19T17:25:44.713Z,101240.03
2023-02-19T17:28:11.988Z,101269.00
2023-02-19T17:30:40.622Z,101286.81
2023-02-19T17:33:07.967Z,101299.91
2023-02-19T17:35:35.119Z,101316.91
2023-02-19T17:38:03.700Z,101326.03
2023-02-19T17:40:33.757Z,101352.53
2023-02-19T17:43:01.760Z,101367.16
2023-02-19T17:45:29.510Z,101375.47
2023-02-19T17:47:56.803Z,101398.81
2023-02-19T17:50:27.125Z,101404.78
2023-02-19T17:52:54.438Z,101412.69
2023-02-19T17:55:23.411Z,101426.13
2023-02-19T17:57:52.331Z,101427.72
2023-02-19T18:00:22.151Z,101449.09
2023-02-19T18:02:49.806Z,101453.03
2023-02-19T18:05:17.421Z,101462.53
2023-02-19T18:07:45.629Z,101455.41
2023-02-19T18:10:13.530Z,101463.31
2023-02-19T18:12:42.372Z,101469.63
2023-02-19T18:15:14.733Z,101462.91
2023-02-19T18:17:41.983Z,101468.84
2023-02-19T18:20:13.497Z,101474.75
2023-02-19T18:22:40.909Z,101473.59
2023-02-19T18:25:08.965Z,101466.09
2023-02-19T18:27:36.466Z,101469.63
2023-02-19T18:30:06.592Z,101470.81
2023-02-19T18:32:34.064Z,101473.59
2023-02-19T18:35:01.597Z,101470.44
2023-02-19T18:37:29.973Z,101481.50
2023-02-19T18:39:58.029Z,101485.47
2023-02-19T18:42:25.538Z,101496.53
2023-02-19T18:44:53.034Z,101491.00
2023-02-19T18:47:23.765Z,101498.94
2023-02-19T18:49:52.867Z,101510.81
2023-02-19T18:52:21.942Z,101510.81
2023-02-19T18:54:50.243Z,101518.72
2023-02-19T18:57:18.238Z,101539.28
2023-02-19T18:59:45.663Z,101550.75
2023-02-19T19:02:12.951Z,101551.16
2023-02-19T19:04:41.620Z,101570.13
2023-02-19T19:07:09.949Z,101587.53
2023-02-19T19:09:37.252Z,101591.47
2023-02-19T19:12:05.385Z,101604.97
2023-02-19T19:14:32.627Z,101610.50
2023-02-19T19:16:59.964Z,101626.28
2023-02-19T19:19:27.172Z,101619.97
2023-02-19T19:21:56.323Z,101632.63
2023-02-19T19:24:24.395Z,101640.13
2023-02-19T19:26:52.353Z,101649.25
2023-02-19T19:29:21.374Z,101662.66
2023-02-19T19:31:49.394Z,101667.81
2023-02-19T19:34:17.641Z,101672.94
2023-02-19T19:36:45.723Z,101675.28
2023-02-19T19:39:14.433Z,101683.97
2023-02-19T19:41:41.762Z,101695.84
2023-02-19T19:44:09.497Z,101711.69
2023-02-19T19:46:43.869Z,101713.28
2023-02-19T19:49:11.344Z,101725.94
2023-02-19T19:51:38.626Z,101730.28
2023-02-19T19:54:05.969Z,101735.44
2023-02-19T19:56:40.174Z,101740.16
2023-02-19T19:59:09.669Z,101759.16
2023-02-19T20:01:37.054Z,101759.97
2023-02-19T20:04:05.390Z,101757.56
2023-02-19T20:06:32.572Z,101756.34
2023-02-19T20:08:59.810Z,101749.25
2023-02-19T20:11:27.246Z,101759.94
2023-02-19T20:13:55.861Z,101763.84
2023-02-19T20:16:26.734Z,101752.03
2023-02-19T20:18:54.393Z,101753.59
2023-02-19T20:21:21.696Z,101754.81
2023-02-19T20:23:48.869Z,101751.97
2023-02-19T20:26:22.442Z,101756.75
2023-02-19T20:28:49.762Z,101747.22
2023-02-19T20:31:18.940Z,101763.06
2023-02-19T20:33:46.808Z,101772.56
2023-02-19T20:36:14.395Z,101786.00
2023-02-19T20:38:41.857Z,101782.03
2023-02-19T20:41:10.255Z,101782.47
2023-02-19T20:43:37.810Z,101793.13
2023-02-19T20:46:05.279Z,101804.19
2023-02-19T20:48:34.090Z,101808.91
2023-02-19T20:51:01.328Z,101825.53
2023-02-19T20:53:30.330Z,101825.13
2023-02-19T20:55:58.150Z,101831.03
2023-02-19T20:58:25.858Z,101833.38
2023-02-19T21:00:53.152Z,101845.66
2023-02-19T21:03:20.934Z,101855.06
2023-02-19T21:05:49.723Z,101876.38
2023-02-19T21:08:17.286Z,101886.19
2023-02-19T21:10:46.107Z,101901.97
2023-02-19T21:13:13.950Z,101912.94
2023-02-19T21:15:41.430Z,101945.31
2023-02-19T21:18:08.725Z,101968.25
2023-02-19T21:20:35.909Z,101984.09
2023-02-19T21:23:04.700Z,101994.38
2023-02-19T21:25:31.959Z,102010.28
2023-02-19T21:27:59.206Z,102029.28
2023-02-19T21:30:26.506Z,102041.19
2023-02-19T21:32:53.933Z,102035.63
2023-02-19T21:35:21.374Z,102033.72
2023-02-19T21:37:48.868Z,102029.41
2023-02-19T21:40:17.636Z,102009.53
2023-02-19T21:42:45.080Z,102008.38
2023-02-19T21:45:12.269Z,102000.44
2023-02-19T21:47:39.576Z,102007.22
2023-02-19T21:50:07.816Z,102009.16
2023-02-19T21:52:35.064Z,101993.81
2023-02-19T21:55:02.340Z,101991.06
2023-02-19T21:57:32.153Z,101974.09
2023-02-19T21:59:59.466Z,101959.91
2023-02-19T22:02:27.037Z,101946.47
2023-02-19T22:04:55.470Z,101935.41
2023-02-19T22:07:22.702Z,101955.16
2023-02-19T22:09:50.761Z,101954.78
2023-02-19T22:12:19.175Z,101952.81
2023-02-19T22:14:47.770Z,101956.78
2023-02-19T22:17:15.236Z,101945.75
2023-02-19T22:19:42.561Z,101941.81
2023-02-19T22:22:09.954Z,101931.47
2023-02-19T22:24:37.283Z,101939.03
2023-02-19T22:27:04.675Z,101948.13
2023-02-19T22:29:34.688Z,101947.34
2023-02-19T22:32:03.537Z,101942.56
2023-02-19T22:34:31.246Z,101944.16
2023-02-19T22:36:58.538Z,101939.81
2023-02-19T22:39:26.866Z,101939.84
2023-02-19T22:41:54.252Z,101944.97
2023-02-19T22:44:21.518Z,101951.75
2023-02-19T22:46:50.738Z,101954.13
2023-02-19T22:49:20.123Z,101941.88
2023-02-19T22:51:50.292Z,101945.03
2023-02-19T22:54:17.724Z,101941.06
2023-02-19T22:56:44.980Z,101933.56
2023-02-19T22:59:12.178Z,101938.72
2023-02-19T23:01:39.458Z,101938.72
2023-02-19T23:04:09.746Z,101941.84
2023-02-19T23:06:41.192Z,101956.94
2023-02-19T23:09:13.642Z,101956.13
2023-02-19T23:11:40.957Z,101958.94
2023-02-19T23:14:08.476Z,101956.97
2023-02-19T23:16:35.888Z,101954.59
2023-02-19T23:19:03.786Z,101945.09
2023-02-19T23:21:31.522Z,101942.31
2023-02-19T23:24:00.225Z,101947.06
2023-02-19T23:26:27.745Z,101954.56
2023-02-19T23:28:55.056Z,101950.69
2023-02-19T23:31:22.565Z,101924.56
2023-02-19T23:33:49.827Z,101922.16
2023-02-19T23:36:17.190Z,101916.63
2023-02-19T23:38:44.750Z,101903.94
2023-02-19T23:41:15.070Z,101894.47
2023-02-19T23:43:42.507Z,101884.59
2023-02-19T23:46:13.701Z,101879.06
2023-02-19T23:48:41.254Z,101873.09
2023-02-19T23:51:08.550Z,101865.97
2023-02-19T23:53:35.783Z,101853.34
2023-02-19T23:56:03.015Z,101846.56
2023-02-19T23:58:31.697Z,101842.25
